sensor_id;sensor_type;location;lat;lon;timestamp;P1;durP1;ratioP1;P2;durP2;ratioP2
15913;SDS011;8055;51.930;8.840;2023-06-22T00:01:15;8.70;;;7.88;;
15913;SDS011;8055;51.930;8.840;2023-06-22T00:03:40;8.00;;;7.30;;
15913;SDS011;8055;51.930;8.840;2023-06-22T00:06:06;8.68;;;7.72;;
15913;SDS011;8055;51.930;8.840;2023-06-22T00:08:31;11.35;;;7.72;;
15913;SDS011;8055;51.930;8.840;2023-06-22T00:10:56;11.13;;;7.78;;
15913;SDS011;8055;51.930;8.840;2023-06-22T00:13:22;8.45;;;7.00;;
15913;SDS011;8055;51.930;8.840;2023-06-22T00:15:47;10.43;;;8.10;;
15913;SDS011;8055;51.930;8.840;2023-06-22T00:18:13;9.73;;;7.28;;
15913;SDS011;8055;51.930;8.840;2023-06-22T00:20:38;8.80;;;7.90;;
15913;SDS011;8055;51.930;8.840;2023-06-22T00:23:05;7.68;;;6.88;;
15913;SDS011;8055;51.930;8.840;2023-06-22T00:25:40;8.32;;;7.63;;
15913;SDS011;8055;51.930;8.840;2023-06-22T00:28:06;8.02;;;7.28;;
15913;SDS011;8055;51.930;8.840;2023-06-22T00:30:32;9.50;;;7.55;;
15913;SDS011;8055;51.930;8.840;2023-06-22T00:32:58;8.65;;;7.18;;
15913;SDS011;8055;51.930;8.840;2023-06-22T00:35:24;10.43;;;7.13;;
15913;SDS011;8055;51.930;8.840;2023-06-22T00:37:57;8.77;;;7.55;;
15913;SDS011;8055;51.930;8.840;2023-06-22T00:40:28;8.70;;;7.43;;
15913;SDS011;8055;51.930;8.840;2023-06-22T00:42:54;9.32;;;7.80;;
15913;SDS011;8055;51.930;8.840;2023-06-22T00:45:20;10.25;;;8.30;;
15913;SDS011;8055;51.930;8.840;2023-06-22T00:47:47;8.82;;;7.57;;
15913;SDS011;8055;51.930;8.840;2023-06-22T00:50:16;9.68;;;7.32;;
15913;SDS011;8055;51.930;8.840;2023-06-22T00:55:12;12.55;;;8.27;;
15913;SDS011;8055;51.930;8.840;2023-06-22T00:57:37;8.48;;;7.68;;
15913;SDS011;8055;51.930;8.840;2023-06-22T01:00:03;13.88;;;8.63;;
15913;SDS011;8055;51.930;8.840;2023-06-22T01:02:33;10.93;;;7.80;;
15913;SDS011;8055;51.930;8.840;2023-06-22T01:04:59;10.88;;;7.38;;
15913;SDS011;8055;51.930;8.840;2023-06-22T01:12:45;8.48;;;7.63;;
15913;SDS011;8055;51.930;8.840;2023-06-22T01:15:25;12.65;;;7.97;;
15913;SDS011;8055;51.930;8.840;2023-06-22T01:18:04;8.90;;;8.00;;
15913;SDS011;8055;51.930;8.840;2023-06-22T01:20:30;9.75;;;7.40;;
15913;SDS011;8055;51.930;8.840;2023-06-22T01:28:17;10.77;;;8.02;;
15913;SDS011;8055;51.930;8.840;2023-06-22T01:30:49;8.50;;;7.70;;
15913;SDS011;8055;51.930;8.840;2023-06-22T01:33:28;10.20;;;8.95;;
15913;SDS011;8055;51.930;8.840;2023-06-22T01:35:55;9.07;;;7.65;;
15913;SDS011;8055;51.930;8.840;2023-06-22T01:38:21;10.18;;;8.00;;
15913;SDS011;8055;51.930;8.840;2023-06-22T01:40:47;9.40;;;8.38;;
15913;SDS011;8055;51.930;8.840;2023-06-22T01:43:14;10.30;;;8.48;;
15913;SDS011;8055;51.930;8.840;2023-06-22T01:45:40;9.85;;;8.43;;
15913;SDS011;8055;51.930;8.840;2023-06-22T01:48:07;12.38;;;8.57;;
15913;SDS011;8055;51.930;8.840;2023-06-22T01:50:33;9.27;;;8.35;;
15913;SDS011;8055;51.930;8.840;2023-06-22T01:52:58;11.18;;;9.43;;
15913;SDS011;8055;51.930;8.840;2023-06-22T01:55:23;9.93;;;8.93;;
15913;SDS011;8055;51.930;8.840;2023-06-22T01:57:49;9.30;;;8.40;;
15913;SDS011;8055;51.930;8.840;2023-06-22T02:00:17;8.90;;;8.07;;
15913;SDS011;8055;51.930;8.840;2023-06-22T02:02:56;9.93;;;8.93;;
15913;SDS011;8055;51.930;8.840;2023-06-22T02:05:31;10.60;;;9.60;;
15913;SDS011;8055;51.930;8.840;2023-06-22T02:08:07;9.77;;;8.80;;
15913;SDS011;8055;51.930;8.840;2023-06-22T02:10:36;12.50;;;8.77;;
15913;SDS011;8055;51.930;8.840;2023-06-22T02:13:04;9.25;;;8.35;;
15913;SDS011;8055;51.930;8.840;2023-06-22T02:15:31;11.25;;;8.35;;
15913;SDS011;8055;51.930;8.840;2023-06-22T02:17:57;9.55;;;8.00;;
15913;SDS011;8055;51.930;8.840;2023-06-22T02:20:23;9.00;;;8.10;;
15913;SDS011;8055;51.930;8.840;2023-06-22T02:22:49;9.93;;;8.88;;
15913;SDS011;8055;51.930;8.840;2023-06-22T02:25:14;12.85;;;8.32;;
15913;SDS011;8055;51.930;8.840;2023-06-22T02:27:40;9.95;;;8.95;;
15913;SDS011;8055;51.930;8.840;2023-06-22T02:30:07;13.77;;;8.75;;
15913;SDS011;8055;51.930;8.840;2023-06-22T02:32:34;9.10;;;8.13;;
15913;SDS011;8055;51.930;8.840;2023-06-22T02:35:00;14.32;;;8.50;;
15913;SDS011;8055;51.930;8.840;2023-06-22T02:37:29;9.30;;;7.93;;
15913;SDS011;8055;51.930;8.840;2023-06-22T02:39:54;10.50;;;8.52;;
15913;SDS011;8055;51.930;8.840;2023-06-22T02:42:20;9.35;;;7.97;;
15913;SDS011;8055;51.930;8.840;2023-06-22T02:44:46;10.98;;;8.05;;
15913;SDS011;8055;51.930;8.840;2023-06-22T02:47:12;10.05;;;9.13;;
15913;SDS011;8055;51.930;8.840;2023-06-22T02:49:37;12.07;;;8.63;;
15913;SDS011;8055;51.930;8.840;2023-06-22T02:52:03;10.23;;;8.50;;
15913;SDS011;8055;51.930;8.840;2023-06-22T02:54:28;10.82;;;9.00;;
15913;SDS011;8055;51.930;8.840;2023-06-22T02:56:54;10.35;;;9.25;;
15913;SDS011;8055;51.930;8.840;2023-06-22T02:59:19;10.15;;;8.98;;
15913;SDS011;8055;51.930;8.840;2023-06-22T03:01:48;11.65;;;8.68;;
15913;SDS011;8055;51.930;8.840;2023-06-22T03:04:15;9.63;;;8.73;;
15913;SDS011;8055;51.930;8.840;2023-06-22T03:06:41;11.18;;;8.80;;
15913;SDS011;8055;51.930;8.840;2023-06-22T03:09:06;9.57;;;8.68;;
15913;SDS011;8055;51.930;8.840;2023-06-22T03:11:33;9.55;;;8.60;;
15913;SDS011;8055;51.930;8.840;2023-06-22T03:13:59;10.00;;;8.95;;
15913;SDS011;8055;51.930;8.840;2023-06-22T03:16:26;9.20;;;8.30;;
15913;SDS011;8055;51.930;8.840;2023-06-22T03:18:51;11.10;;;9.80;;
15913;SDS011;8055;51.930;8.840;2023-06-22T03:21:18;11.13;;;9.27;;
15913;SDS011;8055;51.930;8.840;2023-06-22T03:23:44;10.85;;;8.82;;
15913;SDS011;8055;51.930;8.840;2023-06-22T03:26:10;9.15;;;8.18;;
15913;SDS011;8055;51.930;8.840;2023-06-22T03:28:35;9.23;;;8.23;;
15913;SDS011;8055;51.930;8.840;2023-06-22T03:31:02;10.07;;;8.63;;
15913;SDS011;8055;51.930;8.840;2023-06-22T03:33:28;11.38;;;8.73;;
15913;SDS011;8055;51.930;8.840;2023-06-22T03:35:54;9.65;;;8.75;;
15913;SDS011;8055;51.930;8.840;2023-06-22T03:38:20;11.30;;;10.02;;
15913;SDS011;8055;51.930;8.840;2023-06-22T03:40:45;9.13;;;8.23;;
15913;SDS011;8055;51.930;8.840;2023-06-22T03:43:10;9.15;;;7.82;;
15913;SDS011;8055;51.930;8.840;2023-06-22T03:45:36;9.30;;;8.40;;
15913;SDS011;8055;51.930;8.840;2023-06-22T03:48:02;11.13;;;8.70;;
15913;SDS011;8055;51.930;8.840;2023-06-22T03:50:27;9.60;;;8.40;;
15913;SDS011;8055;51.930;8.840;2023-06-22T03:52:53;13.90;;;8.85;;
15913;SDS011;8055;51.930;8.840;2023-06-22T03:55:21;9.43;;;8.40;;
15913;SDS011;8055;51.930;8.840;2023-06-22T03:57:47;9.77;;;8.77;;
15913;SDS011;8055;51.930;8.840;2023-06-22T04:00:12;11.38;;;9.40;;
15913;SDS011;8055;51.930;8.840;2023-06-22T04:02:40;12.32;;;9.60;;
15913;SDS011;8055;51.930;8.840;2023-06-22T04:05:05;9.95;;;8.93;;
15913;SDS011;8055;51.930;8.840;2023-06-22T04:07:31;9.35;;;8.45;;
15913;SDS011;8055;51.930;8.840;2023-06-22T04:09:56;9.68;;;8.68;;
15913;SDS011;8055;51.930;8.840;2023-06-22T04:12:22;10.30;;;8.90;;
15913;SDS011;8055;51.930;8.840;2023-06-22T04:14:47;11.63;;;8.98;;
15913;SDS011;8055;51.930;8.840;2023-06-22T04:17:13;8.90;;;8.00;;
15913;SDS011;8055;51.930;8.840;2023-06-22T04:19:40;10.77;;;9.68;;
15913;SDS011;8055;51.930;8.840;2023-06-22T04:22:06;10.90;;;9.10;;
15913;SDS011;8055;51.930;8.840;2023-06-22T04:24:35;9.80;;;8.85;;
15913;SDS011;8055;51.930;8.840;2023-06-22T04:27:00;11.77;;;9.50;;
15913;SDS011;8055;51.930;8.840;2023-06-22T04:29:28;9.35;;;8.35;;
15913;SDS011;8055;51.930;8.840;2023-06-22T04:31:57;10.45;;;8.23;;
15913;SDS011;8055;51.930;8.840;2023-06-22T04:34:23;10.93;;;8.70;;
15913;SDS011;8055;51.930;8.840;2023-06-22T04:36:53;12.50;;;9.57;;
15913;SDS011;8055;51.930;8.840;2023-06-22T04:39:18;10.95;;;8.88;;
15913;SDS011;8055;51.930;8.840;2023-06-22T04:41:44;13.98;;;10.60;;
15913;SDS011;8055;51.930;8.840;2023-06-22T04:46:52;14.05;;;12.52;;
15913;SDS011;8055;51.930;8.840;2023-06-22T04:49:33;13.77;;;12.13;;
15913;SDS011;8055;51.930;8.840;2023-06-22T04:52:06;17.65;;;13.10;;
15913;SDS011;8055;51.930;8.840;2023-06-22T04:54:33;13.68;;;12.27;;
15913;SDS011;8055;51.930;8.840;2023-06-22T04:57:03;14.77;;;12.00;;
15913;SDS011;8055;51.930;8.840;2023-06-22T04:59:34;15.85;;;12.23;;
15913;SDS011;8055;51.930;8.840;2023-06-22T05:02:01;16.10;;;11.98;;
15913;SDS011;8055;51.930;8.840;2023-06-22T05:04:28;14.30;;;12.80;;
15913;SDS011;8055;51.930;8.840;2023-06-22T05:06:58;18.77;;;14.43;;
15913;SDS011;8055;51.930;8.840;2023-06-22T05:09:25;15.25;;;13.35;;
15913;SDS011;8055;51.930;8.840;2023-06-22T05:11:50;14.85;;;13.35;;
15913;SDS011;8055;51.930;8.840;2023-06-22T05:14:16;13.90;;;12.40;;
15913;SDS011;8055;51.930;8.840;2023-06-22T05:16:43;14.48;;;12.98;;
15913;SDS011;8055;51.930;8.840;2023-06-22T05:19:09;14.80;;;12.27;;
15913;SDS011;8055;51.930;8.840;2023-06-22T05:21:34;14.65;;;12.98;;
15913;SDS011;8055;51.930;8.840;2023-06-22T05:24:00;17.88;;;12.65;;
15913;SDS011;8055;51.930;8.840;2023-06-22T05:26:27;16.15;;;12.98;;
15913;SDS011;8055;51.930;8.840;2023-06-22T05:28:54;16.50;;;12.73;;
15913;SDS011;8055;51.930;8.840;2023-06-22T05:31:19;17.73;;;12.05;;
15913;SDS011;8055;51.930;8.840;2023-06-22T05:33:45;15.85;;;13.20;;
15913;SDS011;8055;51.930;8.840;2023-06-22T05:36:11;15.48;;;12.85;;
15913;SDS011;8055;51.930;8.840;2023-06-22T05:38:40;15.50;;;12.70;;
15913;SDS011;8055;51.930;8.840;2023-06-22T05:41:06;14.80;;;11.32;;
15913;SDS011;8055;51.930;8.840;2023-06-22T05:43:33;19.10;;;13.98;;
15913;SDS011;8055;51.930;8.840;2023-06-22T05:45:59;14.90;;;13.30;;
15913;SDS011;8055;51.930;8.840;2023-06-22T05:48:25;16.65;;;14.73;;
15913;SDS011;8055;51.930;8.840;2023-06-22T05:50:51;14.73;;;13.23;;
15913;SDS011;8055;51.930;8.840;2023-06-22T05:53:17;14.05;;;12.60;;
15913;SDS011;8055;51.930;8.840;2023-06-22T05:55:43;19.58;;;13.50;;
15913;SDS011;8055;51.930;8.840;2023-06-22T05:58:08;15.30;;;12.20;;
15913;SDS011;8055;51.930;8.840;2023-06-22T06:00:34;14.00;;;11.95;;
15913;SDS011;8055;51.930;8.840;2023-06-22T06:03:00;13.40;;;12.00;;
15913;SDS011;8055;51.930;8.840;2023-06-22T06:05:34;16.80;;;12.82;;
15913;SDS011;8055;51.930;8.840;2023-06-22T06:08:01;13.63;;;11.52;;
15913;SDS011;8055;51.930;8.840;2023-06-22T06:10:29;14.95;;;11.80;;
15913;SDS011;8055;51.930;8.840;2023-06-22T06:12:55;12.90;;;11.30;;
15913;SDS011;8055;51.930;8.840;2023-06-22T06:15:21;16.25;;;12.10;;
15913;SDS011;8055;51.930;8.840;2023-06-22T06:17:51;13.02;;;11.73;;
15913;SDS011;8055;51.930;8.840;2023-06-22T06:20:18;13.43;;;11.05;;
15913;SDS011;8055;51.930;8.840;2023-06-22T06:22:44;12.88;;;11.43;;
15913;SDS011;8055;51.930;8.840;2023-06-22T06:25:10;13.60;;;12.30;;
15913;SDS011;8055;51.930;8.840;2023-06-22T06:27:44;12.18;;;10.82;;
15913;SDS011;8055;51.930;8.840;2023-06-22T06:30:11;12.50;;;11.20;;
15913;SDS011;8055;51.930;8.840;2023-06-22T06:32:37;15.50;;;12.60;;
15913;SDS011;8055;51.930;8.840;2023-06-22T06:35:04;13.55;;;11.27;;
15913;SDS011;8055;51.930;8.840;2023-06-22T06:37:37;14.20;;;11.90;;
15913;SDS011;8055;51.930;8.840;2023-06-22T06:40:07;14.80;;;12.15;;
15913;SDS011;8055;51.930;8.840;2023-06-22T06:42:35;14.52;;;12.77;;
15913;SDS011;8055;51.930;8.840;2023-06-22T06:45:03;16.00;;;12.93;;
15913;SDS011;8055;51.930;8.840;2023-06-22T06:47:30;15.07;;;13.57;;
15913;SDS011;8055;51.930;8.840;2023-06-22T06:49:55;15.45;;;12.32;;
15913;SDS011;8055;51.930;8.840;2023-06-22T06:52:20;15.13;;;12.45;;
15913;SDS011;8055;51.930;8.840;2023-06-22T06:54:46;17.88;;;13.48;;
15913;SDS011;8055;51.930;8.840;2023-06-22T06:57:11;16.98;;;13.35;;
15913;SDS011;8055;51.930;8.840;2023-06-22T06:59:38;16.70;;;13.35;;
15913;SDS011;8055;51.930;8.840;2023-06-22T07:02:04;14.80;;;12.98;;
15913;SDS011;8055;51.930;8.840;2023-06-22T07:04:30;18.45;;;14.00;;
15913;SDS011;8055;51.930;8.840;2023-06-22T07:06:55;17.38;;;13.77;;
15913;SDS011;8055;51.930;8.840;2023-06-22T07:09:21;14.02;;;12.60;;
15913;SDS011;8055;51.930;8.840;2023-06-22T07:11:46;15.40;;;13.43;;
15913;SDS011;8055;51.930;8.840;2023-06-22T07:14:11;14.77;;;13.23;;
15913;SDS011;8055;51.930;8.840;2023-06-22T07:16:37;17.58;;;13.52;;
15913;SDS011;8055;51.930;8.840;2023-06-22T07:19:02;14.00;;;12.40;;
15913;SDS011;8055;51.930;8.840;2023-06-22T07:21:28;16.80;;;14.45;;
15913;SDS011;8055;51.930;8.840;2023-06-22T07:23:53;14.20;;;12.70;;
15913;SDS011;8055;51.930;8.840;2023-06-22T07:26:19;15.20;;;12.55;;
15913;SDS011;8055;51.930;8.840;2023-06-22T07:28:45;14.95;;;12.25;;
15913;SDS011;8055;51.930;8.840;2023-06-22T07:31:10;16.10;;;13.82;;
15913;SDS011;8055;51.930;8.840;2023-06-22T07:33:36;13.88;;;12.38;;
15913;SDS011;8055;51.930;8.840;2023-06-22T07:36:01;15.80;;;13.88;;
15913;SDS011;8055;51.930;8.840;2023-06-22T07:38:28;15.48;;;13.75;;
15913;SDS011;8055;51.930;8.840;2023-06-22T07:40:54;14.52;;;12.90;;
15913;SDS011;8055;51.930;8.840;2023-06-22T07:43:19;14.40;;;12.88;;
15913;SDS011;8055;51.930;8.840;2023-06-22T07:45:48;19.52;;;13.88;;
15913;SDS011;8055;51.930;8.840;2023-06-22T07:50:46;14.88;;;13.30;;
15913;SDS011;8055;51.930;8.840;2023-06-22T07:53:11;16.10;;;13.82;;
15913;SDS011;8055;51.930;8.840;2023-06-22T07:55:36;16.65;;;15.00;;
15913;SDS011;8055;51.930;8.840;2023-06-22T07:58:02;19.25;;;14.98;;
15913;SDS011;8055;51.930;8.840;2023-06-22T08:00:27;17.13;;;15.30;;
15913;SDS011;8055;51.930;8.840;2023-06-22T08:02:53;16.48;;;14.80;;
15913;SDS011;8055;51.930;8.840;2023-06-22T08:05:18;18.73;;;15.25;;
15913;SDS011;8055;51.930;8.840;2023-06-22T08:07:44;18.45;;;16.35;;
15913;SDS011;8055;51.930;8.840;2023-06-22T08:10:13;18.02;;;16.25;;
15913;SDS011;8055;51.930;8.840;2023-06-22T08:12:39;16.17;;;14.48;;
15913;SDS011;8055;51.930;8.840;2023-06-22T08:15:05;18.73;;;16.77;;
15913;SDS011;8055;51.930;8.840;2023-06-22T08:17:32;16.55;;;14.88;;
15913;SDS011;8055;51.930;8.840;2023-06-22T08:19:58;16.70;;;15.00;;
15913;SDS011;8055;51.930;8.840;2023-06-22T08:22:23;20.15;;;17.15;;
15913;SDS011;8055;51.930;8.840;2023-06-22T08:24:48;19.52;;;17.52;;
15913;SDS011;8055;51.930;8.840;2023-06-22T08:27:14;16.88;;;15.05;;
15913;SDS011;8055;51.930;8.840;2023-06-22T08:29:46;18.40;;;16.45;;
15913;SDS011;8055;51.930;8.840;2023-06-22T08:32:11;18.50;;;16.52;;
15913;SDS011;8055;51.930;8.840;2023-06-22T08:34:37;18.00;;;16.30;;
15913;SDS011;8055;51.930;8.840;2023-06-22T08:37:07;19.25;;;17.23;;
15913;SDS011;8055;51.930;8.840;2023-06-22T08:39:33;18.15;;;16.25;;
15913;SDS011;8055;51.930;8.840;2023-06-22T08:41:59;19.35;;;17.33;;
15913;SDS011;8055;51.930;8.840;2023-06-22T08:44:25;18.92;;;16.30;;
15913;SDS011;8055;51.930;8.840;2023-06-22T08:46:50;18.65;;;16.75;;
15913;SDS011;8055;51.930;8.840;2023-06-22T08:49:15;17.20;;;15.43;;
15913;SDS011;8055;51.930;8.840;2023-06-22T08:51:41;17.08;;;15.43;;
15913;SDS011;8055;51.930;8.840;2023-06-22T08:54:06;17.95;;;15.55;;
15913;SDS011;8055;51.930;8.840;2023-06-22T08:56:31;16.23;;;14.57;;
15913;SDS011;8055;51.930;8.840;2023-06-22T08:58:57;17.52;;;15.75;;
15913;SDS011;8055;51.930;8.840;2023-06-22T09:01:22;17.27;;;15.60;;
15913;SDS011;8055;51.930;8.840;2023-06-22T09:03:48;18.80;;;16.48;;
15913;SDS011;8055;51.930;8.840;2023-06-22T09:06:19;17.13;;;15.43;;
15913;SDS011;8055;51.930;8.840;2023-06-22T09:08:45;16.23;;;14.63;;
15913;SDS011;8055;51.930;8.840;2023-06-22T09:11:12;17.25;;;15.50;;
15913;SDS011;8055;51.930;8.840;2023-06-22T09:13:37;16.15;;;14.63;;
15913;SDS011;8055;51.930;8.840;2023-06-22T09:16:02;15.57;;;13.88;;
15913;SDS011;8055;51.930;8.840;2023-06-22T09:18:28;16.52;;;14.68;;
15913;SDS011;8055;51.930;8.840;2023-06-22T09:20:53;15.52;;;13.93;;
15913;SDS011;8055;51.930;8.840;2023-06-22T09:23:19;16.77;;;15.18;;
15913;SDS011;8055;51.930;8.840;2023-06-22T09:25:44;16.13;;;14.18;;
15913;SDS011;8055;51.930;8.840;2023-06-22T09:28:11;14.48;;;13.07;;
15913;SDS011;8055;51.930;8.840;2023-06-22T09:30:37;15.18;;;13.35;;
15913;SDS011;8055;51.930;8.840;2023-06-22T09:33:02;16.25;;;13.38;;
15913;SDS011;8055;51.930;8.840;2023-06-22T09:35:28;14.32;;;11.82;;
15913;SDS011;8055;51.930;8.840;2023-06-22T09:37:53;14.68;;;13.15;;
15913;SDS011;8055;51.930;8.840;2023-06-22T09:40:18;16.27;;;13.07;;
15913;SDS011;8055;51.930;8.840;2023-06-22T09:42:45;14.85;;;12.35;;
15913;SDS011;8055;51.930;8.840;2023-06-22T09:45:10;12.82;;;11.55;;
15913;SDS011;8055;51.930;8.840;2023-06-22T09:47:36;15.05;;;13.07;;
15913;SDS011;8055;51.930;8.840;2023-06-22T09:50:01;12.80;;;11.27;;
15913;SDS011;8055;51.930;8.840;2023-06-22T09:52:27;15.05;;;12.00;;
15913;SDS011;8055;51.930;8.840;2023-06-22T09:54:52;15.60;;;12.32;;
15913;SDS011;8055;51.930;8.840;2023-06-22T09:57:18;13.00;;;11.63;;
15913;SDS011;8055;51.930;8.840;2023-06-22T09:59:43;12.07;;;10.88;;
15913;SDS011;8055;51.930;8.840;2023-06-22T10:02:08;13.18;;;11.77;;
15913;SDS011;8055;51.930;8.840;2023-06-22T10:04:37;11.75;;;10.55;;
15913;SDS011;8055;51.930;8.840;2023-06-22T10:07:09;12.43;;;11.23;;
15913;SDS011;8055;51.930;8.840;2023-06-22T10:09:34;13.43;;;12.02;;
15913;SDS011;8055;51.930;8.840;2023-06-22T10:12:00;14.98;;;12.48;;
15913;SDS011;8055;51.930;8.840;2023-06-22T10:14:25;13.52;;;12.23;;
15913;SDS011;8055;51.930;8.840;2023-06-22T10:16:52;12.55;;;11.45;;
15913;SDS011;8055;51.930;8.840;2023-06-22T10:19:17;14.70;;;13.25;;
15913;SDS011;8055;51.930;8.840;2023-06-22T10:21:43;14.15;;;12.68;;
15913;SDS011;8055;51.930;8.840;2023-06-22T10:24:08;15.85;;;12.88;;
15913;SDS011;8055;51.930;8.840;2023-06-22T10:26:34;13.30;;;11.90;;
15913;SDS011;8055;51.930;8.840;2023-06-22T10:29:01;16.05;;;12.15;;
15913;SDS011;8055;51.930;8.840;2023-06-22T10:31:27;14.45;;;10.98;;
15913;SDS011;8055;51.930;8.840;2023-06-22T10:33:53;13.40;;;11.80;;
15913;SDS011;8055;51.930;8.840;2023-06-22T10:36:19;10.75;;;9.45;;
15913;SDS011;8055;51.930;8.840;2023-06-22T10:38:45;11.07;;;9.98;;
15913;SDS011;8055;51.930;8.840;2023-06-22T10:41:12;12.63;;;11.35;;
15913;SDS011;8055;51.930;8.840;2023-06-22T10:43:37;13.13;;;11.82;;
15913;SDS011;8055;51.930;8.840;2023-06-22T10:46:03;11.60;;;9.95;;
15913;SDS011;8055;51.930;8.840;2023-06-22T10:48:28;9.35;;;8.45;;
15913;SDS011;8055;51.930;8.840;2023-06-22T10:50:54;11.60;;;10.43;;
15913;SDS011;8055;51.930;8.840;2023-06-22T10:53:19;11.32;;;10.20;;
15913;SDS011;8055;51.930;8.840;2023-06-22T10:55:45;10.18;;;9.18;;
15913;SDS011;8055;51.930;8.840;2023-06-22T10:58:10;11.05;;;10.05;;
15913;SDS011;8055;51.930;8.840;2023-06-22T11:00:36;14.07;;;8.43;;
15913;SDS011;8055;51.930;8.840;2023-06-22T11:03:02;9.75;;;8.27;;
15913;SDS011;8055;51.930;8.840;2023-06-22T11:05:27;10.80;;;8.23;;
15913;SDS011;8055;51.930;8.840;2023-06-22T11:07:52;9.52;;;8.63;;
15913;SDS011;8055;51.930;8.840;2023-06-22T11:10:18;9.57;;;8.63;;
15913;SDS011;8055;51.930;8.840;2023-06-22T11:12:43;9.75;;;8.77;;
15913;SDS011;8055;51.930;8.840;2023-06-22T11:15:08;10.68;;;8.40;;
15913;SDS011;8055;51.930;8.840;2023-06-22T11:17:34;8.93;;;8.13;;
15913;SDS011;8055;51.930;8.840;2023-06-22T11:20:00;9.35;;;8.40;;
15913;SDS011;8055;51.930;8.840;2023-06-22T11:22:26;9.18;;;8.27;;
15913;SDS011;8055;51.930;8.840;2023-06-22T11:24:51;8.55;;;7.75;;
15913;SDS011;8055;51.930;8.840;2023-06-22T11:27:17;10.60;;;8.50;;
15913;SDS011;8055;51.930;8.840;2023-06-22T11:29:42;9.00;;;8.10;;
15913;SDS011;8055;51.930;8.840;2023-06-22T11:32:08;11.13;;;9.63;;
15913;SDS011;8055;51.930;8.840;2023-06-22T11:34:33;12.38;;;9.70;;
15913;SDS011;8055;51.930;8.840;2023-06-22T11:36:59;11.45;;;9.75;;
15913;SDS011;8055;51.930;8.840;2023-06-22T11:39:25;10.43;;;9.35;;
15913;SDS011;8055;51.930;8.840;2023-06-22T11:41:50;11.00;;;9.90;;
15913;SDS011;8055;51.930;8.840;2023-06-22T11:44:16;11.40;;;9.55;;
15913;SDS011;8055;51.930;8.840;2023-06-22T11:46:41;12.27;;;9.68;;
15913;SDS011;8055;51.930;8.840;2023-06-22T11:49:06;12.25;;;10.13;;
15913;SDS011;8055;51.930;8.840;2023-06-22T11:51:32;11.13;;;9.55;;
15913;SDS011;8055;51.930;8.840;2023-06-22T11:53:57;9.57;;;8.68;;
15913;SDS011;8055;51.930;8.840;2023-06-22T11:56:23;13.52;;;10.15;;
15913;SDS011;8055;51.930;8.840;2023-06-22T11:58:49;11.35;;;10.35;;
15913;SDS011;8055;51.930;8.840;2023-06-22T12:01:14;12.38;;;10.93;;
15913;SDS011;8055;51.930;8.840;2023-06-22T12:03:40;12.77;;;11.07;;
15913;SDS011;8055;51.930;8.840;2023-06-22T12:06:08;12.18;;;10.98;;
15913;SDS011;8055;51.930;8.840;2023-06-22T12:08:33;11.23;;;10.02;;
15913;SDS011;8055;51.930;8.840;2023-06-22T12:10:58;11.43;;;10.15;;
15913;SDS011;8055;51.930;8.840;2023-06-22T12:13:24;12.23;;;10.35;;
15913;SDS011;8055;51.930;8.840;2023-06-22T12:15:49;11.20;;;10.15;;
15913;SDS011;8055;51.930;8.840;2023-06-22T12:18:17;11.25;;;10.15;;
15913;SDS011;8055;51.930;8.840;2023-06-22T12:20:45;12.20;;;10.93;;
15913;SDS011;8055;51.930;8.840;2023-06-22T12:23:10;13.60;;;10.70;;
15913;SDS011;8055;51.930;8.840;2023-06-22T12:25:36;15.05;;;10.45;;
15913;SDS011;8055;51.930;8.840;2023-06-22T12:28:01;10.80;;;9.38;;
15913;SDS011;8055;51.930;8.840;2023-06-22T12:30:27;12.15;;;10.90;;
15913;SDS011;8055;51.930;8.840;2023-06-22T12:32:53;12.90;;;11.18;;
15913;SDS011;8055;51.930;8.840;2023-06-22T12:35:18;12.68;;;10.35;;
15913;SDS011;8055;51.930;8.840;2023-06-22T12:37:44;12.82;;;11.63;;
15913;SDS011;8055;51.930;8.840;2023-06-22T12:40:09;11.95;;;10.75;;
15913;SDS011;8055;51.930;8.840;2023-06-22T12:42:35;11.65;;;10.55;;
15913;SDS011;8055;51.930;8.840;2023-06-22T12:45:00;12.10;;;10.35;;
15913;SDS011;8055;51.930;8.840;2023-06-22T12:47:26;12.65;;;11.40;;
15913;SDS011;8055;51.930;8.840;2023-06-22T12:49:51;14.65;;;10.25;;
15913;SDS011;8055;51.930;8.840;2023-06-22T12:52:16;12.23;;;10.90;;
15913;SDS011;8055;51.930;8.840;2023-06-22T12:54:42;10.90;;;9.52;;
15913;SDS011;8055;51.930;8.840;2023-06-22T12:57:07;13.32;;;11.98;;
15913;SDS011;8055;51.930;8.840;2023-06-22T12:59:32;13.65;;;11.68;;
15913;SDS011;8055;51.930;8.840;2023-06-22T13:01:58;12.60;;;11.40;;
15913;SDS011;8055;51.930;8.840;2023-06-22T13:04:23;14.32;;;11.75;;
15913;SDS011;8055;51.930;8.840;2023-06-22T13:06:49;12.88;;;11.48;;
15913;SDS011;8055;51.930;8.840;2023-06-22T13:09:14;14.90;;;12.02;;
15913;SDS011;8055;51.930;8.840;2023-06-22T13:11:41;16.38;;;12.43;;
15913;SDS011;8055;51.930;8.840;2023-06-22T13:14:07;15.70;;;13.02;;
15913;SDS011;8055;51.930;8.840;2023-06-22T13:16:33;15.52;;;12.95;;
15913;SDS011;8055;51.930;8.840;2023-06-22T13:18:58;15.30;;;12.57;;
15913;SDS011;8055;51.930;8.840;2023-06-22T13:21:23;14.00;;;12.52;;
15913;SDS011;8055;51.930;8.840;2023-06-22T13:23:49;15.32;;;13.65;;
15913;SDS011;8055;51.930;8.840;2023-06-22T13:26:14;15.35;;;13.80;;
15913;SDS011;8055;51.930;8.840;2023-06-22T13:28:40;15.43;;;13.93;;
15913;SDS011;8055;51.930;8.840;2023-06-22T13:31:05;16.38;;;14.73;;
15913;SDS011;8055;51.930;8.840;2023-06-22T13:33:30;16.35;;;14.75;;
15913;SDS011;8055;51.930;8.840;2023-06-22T13:35:56;16.92;;;15.32;;
15913;SDS011;8055;51.930;8.840;2023-06-22T13:38:21;16.25;;;14.63;;
15913;SDS011;8055;51.930;8.840;2023-06-22T13:40:47;16.80;;;15.10;;
15913;SDS011;8055;51.930;8.840;2023-06-22T13:43:13;19.98;;;16.40;;
15913;SDS011;8055;51.930;8.840;2023-06-22T13:45:38;17.13;;;15.43;;
15913;SDS011;8055;51.930;8.840;2023-06-22T13:48:04;16.05;;;14.45;;
15913;SDS011;8055;51.930;8.840;2023-06-22T13:50:30;18.65;;;15.30;;
15913;SDS011;8055;51.930;8.840;2023-06-22T13:52:55;18.27;;;16.35;;
15913;SDS011;8055;51.930;8.840;2023-06-22T13:55:21;20.65;;;16.60;;
15913;SDS011;8055;51.930;8.840;2023-06-22T13:57:47;19.90;;;16.83;;
15913;SDS011;8055;51.930;8.840;2023-06-22T14:00:12;20.65;;;17.20;;
15913;SDS011;8055;51.930;8.840;2023-06-22T14:02:38;22.00;;;17.77;;
15913;SDS011;8055;51.930;8.840;2023-06-22T14:05:05;17.90;;;16.00;;
15913;SDS011;8055;51.930;8.840;2023-06-22T14:07:31;18.45;;;16.40;;
15913;SDS011;8055;51.930;8.840;2023-06-22T14:09:56;19.35;;;16.05;;
15913;SDS011;8055;51.930;8.840;2023-06-22T14:12:22;17.77;;;15.88;;
15913;SDS011;8055;51.930;8.840;2023-06-22T14:14:48;20.08;;;17.98;;
15913;SDS011;8055;51.930;8.840;2023-06-22T14:17:13;19.48;;;17.38;;
15913;SDS011;8055;51.930;8.840;2023-06-22T14:19:39;20.05;;;17.73;;
15913;SDS011;8055;51.930;8.840;2023-06-22T14:22:04;20.50;;;18.30;;
15913;SDS011;8055;51.930;8.840;2023-06-22T14:24:30;21.92;;;18.40;;
15913;SDS011;8055;51.930;8.840;2023-06-22T14:26:55;19.92;;;17.83;;
15913;SDS011;8055;51.930;8.840;2023-06-22T14:29:24;20.25;;;18.10;;
15913;SDS011;8055;51.930;8.840;2023-06-22T14:31:50;19.13;;;17.30;;
15913;SDS011;8055;51.930;8.840;2023-06-22T14:34:15;20.58;;;17.75;;
15913;SDS011;8055;51.930;8.840;2023-06-22T14:36:41;21.02;;;17.88;;
15913;SDS011;8055;51.930;8.840;2023-06-22T14:39:07;23.65;;;17.50;;
15913;SDS011;8055;51.930;8.840;2023-06-22T14:41:33;19.20;;;16.98;;
15913;SDS011;8055;51.930;8.840;2023-06-22T14:43:58;18.60;;;15.82;;
15913;SDS011;8055;51.930;8.840;2023-06-22T14:46:24;22.27;;;17.50;;
15913;SDS011;8055;51.930;8.840;2023-06-22T14:48:49;20.40;;;18.20;;
15913;SDS011;8055;51.930;8.840;2023-06-22T14:51:15;20.70;;;18.60;;
15913;SDS011;8055;51.930;8.840;2023-06-22T14:53:41;20.63;;;17.50;;
15913;SDS011;8055;51.930;8.840;2023-06-22T14:56:07;20.08;;;17.52;;